METAR Data
IDs: Format: Raw Decoded Include TAF

Data at: 0315 UTC 25 Jan 2020

PAHL 250256Z AUTO 00000KT 10SM CLR M34/ A3010 RMK AO2 SLP205 T1344 55002 FZRANO
PAHL 250156Z AUTO 00000KT 10SM CLR M33/M36 A3010 RMK AO2 SLP205 T13331361 FZRANO
PAHL 250150Z AUTO 00000KT 3SM HZ CLR M33/M36 A3010 RMK AO2 FZRANO
PAHL 250144Z AUTO 00000KT 1 3/4SM HZ CLR M33/M36 A3010 RMK AO2 VIS 1V5 FZRANO
PAHL 250056Z AUTO 00000KT 10SM CLR M31/M34 A3011 RMK AO2 SLP206 T13111339 FZRANO
PAHL 242356Z AUTO 16003KT 9SM CLR M28/M31 A3011 RMK AO2 SLP207 60000 T12781306 11267 21361 58002 FZRANO
PAHL 242256Z AUTO 00000KT 10SM CLR M27/M29 A3011 RMK AO2 SLP208 T12671294 FZRANO
PAHL 242156Z AUTO 00000KT 10SM CLR M29/M32 A3011 RMK AO2 SLP208 T12891317 FZRANO
PAHL 242056Z AUTO 00000KT 10SM CLR M32/M35 A3012 RMK AO2 SLP210 60000 T13221350 51004 FZRANO
PAHL 241956Z AUTO 35003KT 10SM CLR M35/ A3011 RMK AO2 SLP208 T1350 FZRANO
PAHL 241856Z AUTO 04003KT 10SM CLR M36/ A3011 RMK AO2 SNE03 SLP209 P0000 T1356 FZRANO
PAHL 241756Z AUTO 00000KT 10SM -SN CLR M29/M32 A3010 RMK AO2 SNB53 SLP205 P0000 60000 T12941317 11278 21339 50000 FZRANO
PAHL 241656Z AUTO 04003KT 10SM CLR M29/M32 A3011 RMK AO2 SLP207 T12941322 FZRANO
PAHL 241556Z AUTO 00000KT 10SM CLR M30/M33 A3011 RMK AO2 SLP206 T13001328 FZRANO
PAHL 241456Z AUTO 22004KT 10SM CLR M28/M31 A3010 RMK AO2 SLP205 60000 T12831311 50000 FZRANO
PAHL 241356Z AUTO 00000KT 10SM CLR M29/M32 A3011 RMK AO2 SLP205 T12941322 FZRANO
PAHL 241256Z AUTO 22003KT 10SM CLR M28/M30 A3011 RMK AO2 SNE15 SLP207 P0000 T12781300 FZRANO
PAHL 241156Z AUTO 33003KT 9SM -SN CLR M29/M32 A3010 RMK AO2 SNB33 SLP205 P0000 60000 T12941322 11256 21294 51006 FZRANO
PAHL 241056Z AUTO 28005KT 10SM CLR M27/M29 A3010 RMK AO2 SNB0958E22 SLP203 P0000 T12671289 FZRANO
PAHL 240956Z AUTO 31004KT 8SM CLR M26/M28 A3010 RMK AO2 SNE21 SLP202 P0000 T12611283 FZRANO
PAHL 240856Z AUTO 29003KT 9SM -SN CLR M26/M28 A3009 RMK AO2 SLP198 P0000 60000 T12561278 412331278 53006 FZRANO
PAHL 240846Z AUTO 27004KT 9SM -SN FEW017 M26/M28 A3008 RMK AO2 P0000 FZRANO
PAHL 240756Z AUTO 27003KT 9SM -SN OVC017 M26/M28 A3008 RMK AO2 SLP196 P0000 T12561278 FZRANO
PAHL 240656Z AUTO 27004KT 9SM -SN OVC017 M26/M28 A3007 RMK AO2 SLP192 P0000 T12611283 FZRANO
PAHL 240556Z AUTO 33003KT 9SM -SN OVC017 M27/M30 A3007 RMK AO2 SLP192 P0000 60000 T12721300 11244 21278 52009 FZRANO
PAHL 240456Z AUTO 30004KT 9SM -SN OVC017 M28/M30 A3006 RMK AO2 SNB04E14B30 SLP190 P0000 T12781300 FZRANO
PAHL 240427Z AUTO 33004KT 6SM BR OVC017 M28/M30 A3005 RMK AO2 SNB04E14 P0000 FZRANO
PAHL 240417Z AUTO 33003KT 2SM HZ OVC017 M27/M30 A3005 RMK AO2 VIS 3/4V5 SNB04E14 P0000 FZRANO
PAHL 240356Z AUTO 34003KT 9SM BKN017 OVC026 M27/M29 A3005 RMK AO2 SNE47 SLP185 P0000 T12721294 FZRANO
PAHL 240342Z AUTO 34003KT 9SM -SN BKN026 OVC055 M28/M31 A3005 RMK AO2 P0000 FZRANO
PAHL 240256Z AUTO 00000KT 9SM -SN OVC055 M26/M28 A3004 RMK AO2 SNB22 SLP182 P0000 60000 T12611283 53007 FZRANO
PAHL 240230Z AUTO 00000KT 9SM -SN SCT026 BKN060 M27/M29 A3004 RMK AO2 SNB22 P0000 FZRANO
PAHL 240156Z AUTO 00000KT 9SM OVC026 M27/M30 A3003 RMK AO2 SNE11B39E55 SLP180 P0000 T12721300 FZRANO
PAHL 240056Z AUTO 03003KT 9SM -SN OVC022 M27/M29 A3002 RMK AO2 SNB23 SLP178 P0000 T12671294 FZRANO
PAHL 232356Z AUTO 00000KT 9SM OVC022 M24/M27 A3002 RMK AO2 SNB03E13B43E53 SLP174 P0000 60000 T12441272 11233 21250 52008 FZRANO
PAHL 232331Z AUTO 00000KT 10SM BKN022 BKN026 OVC060 M24/M27 A3001 RMK AO2 SNB03E13 P0000 FZRANO
PAHL 232256Z AUTO 00000KT 10SM FEW022 OVC060 M25/M28 A3001 RMK AO2 SLP173 T12501278 FZRANO
PAHL 232228Z AUTO 00000KT 10SM SCT014 M25/M27 A3001 RMK AO2 FZRANO
PAHL 232156Z AUTO 00000KT 10SM OVC014 M25/M27 A3000 RMK AO2 SLP170 T12501272 FZRANO
PAHL 232135Z AUTO 00000KT 10SM BKN014 BKN055 M25/M27 A3000 RMK AO2 FZRANO
PAHL 232056Z AUTO 00000KT 10SM FEW014 OVC034 M24/M27 A2999 RMK AO2 SNE1958 SLP168 P0000 60000 T12441267 51011 FZRANO
PAHL 232045Z AUTO 20003KT 10SM SCT014 OVC034 M24/M27 A2999 RMK AO2 SNE1958 P0000 FZRANO
PAHL 232037Z AUTO 15003KT 10SM BKN014 BKN034 OVC055 M24/M27 A2999 RMK AO2 SNE1958 P0000 FZRANO
PAHL 231956Z AUTO 19003KT 9SM -SN SCT016 SCT036 OVC060 M24/M26 A2998 RMK AO2 SNB47 SLP163 P0000 T12391261 FZRANO
PAHL 231945Z AUTO 00000KT 10SM SCT016 BKN036 OVC060 M24/M26 A2998 RMK AO2 FZRANO
PAHL 231910Z AUTO 00000KT 10SM BKN016 OVC034 M24/M26 A2997 RMK AO2 FZRANO
PAHL 231856Z AUTO 00000KT 10SM FEW016 BKN034 OVC060 M24/M26 A2997 RMK AO2 SNB06E46 SLP159 P0000 T12391261 FZRANO
PAHL 231756Z AUTO 00000KT 9SM OVC038 M23/M26 A2996 RMK AO2 SNE55 SLP155 P0000 60000 T12331261 11233 21261 53008 FZRANO
PAHL 231656Z AUTO 00000KT 9SM -SN OVC044 M24/M26 A2995 RMK AO2 SLP152 P0000 T12391261 FZRANO
PAHL 231556Z AUTO 00000KT 9SM -SN OVC042 M24/M27 A2994 RMK AO2 SLP148 P0000 T12391267 FZRANO